createdAt,value
2024-05-09T00:00:57.113Z,-0.05
2024-05-09T00:03:30.784Z,-0.13
2024-05-09T00:06:05.434Z,-0.23
2024-05-09T00:08:39.167Z,-0.33
2024-05-09T00:11:14.368Z,-0.46
2024-05-09T00:13:48.248Z,-0.55
2024-05-09T00:16:21.948Z,-0.67
2024-05-09T00:18:55.677Z,-0.77
2024-05-09T00:21:29.033Z,-0.87
2024-05-09T00:24:02.788Z,-0.97
2024-05-09T00:26:36.342Z,-1.03
2024-05-09T00:29:09.955Z,-1.08
2024-05-09T00:31:43.426Z,-1.12
2024-05-09T00:34:17.106Z,-1.18
2024-05-09T00:36:50.970Z,-1.24
2024-05-09T00:39:24.503Z,-1.26
2024-05-09T00:41:59.607Z,-1.38
2024-05-09T00:44:33.281Z,-1.31
2024-05-09T00:47:07.881Z,-1.32
2024-05-09T00:49:41.767Z,-1.32
2024-05-09T00:52:16.950Z,-1.35
2024-05-09T00:54:50.979Z,-1.35
2024-05-09T00:57:25.478Z,-1.38
2024-05-09T00:59:58.808Z,-1.36
2024-05-09T01:02:34.089Z,-1.36
2024-05-09T01:05:09.251Z,-1.34
2024-05-09T01:07:44.067Z,-1.34
2024-05-09T01:10:24.320Z,-1.31
2024-05-09T01:12:53.533Z,-1.27
2024-05-09T01:15:27.060Z,-1.23
2024-05-09T01:18:02.463Z,-1.19
2024-05-09T01:20:41.593Z,-1.15
2024-05-09T01:23:12.682Z,-1.15
2024-05-09T01:25:47.943Z,-1.19
2024-05-09T01:28:22.130Z,-1.19
2024-05-09T01:31:03.957Z,-1.16
2024-05-09T01:33:37.752Z,-1.17
2024-05-09T01:36:11.554Z,-1.18
2024-05-09T01:41:25.768Z,-1.07
2024-05-09T01:43:58.997Z,-1.18
2024-05-09T01:46:32.342Z,-1.20
2024-05-09T01:49:06.890Z,-1.22
2024-05-09T01:51:40.678Z,-1.22
2024-05-09T01:54:16.043Z,-1.22
2024-05-09T01:56:49.819Z,-1.21
2024-05-09T01:59:23.550Z,-1.22
2024-05-09T02:01:57.951Z,-1.22
2024-05-09T02:04:32.064Z,-1.21
2024-05-09T02:07:06.486Z,-1.22
2024-05-09T02:09:39.962Z,-1.20
2024-05-09T02:12:13.663Z,-1.18
2024-05-09T02:14:47.258Z,-1.16
2024-05-09T02:17:20.995Z,-1.13
2024-05-09T02:19:55.572Z,-1.12
2024-05-09T02:22:29.635Z,-1.13
2024-05-09T02:25:03.005Z,-1.16
2024-05-09T02:27:36.622Z,-1.10
2024-05-09T02:30:18.931Z,-1.09
2024-05-09T02:32:47.617Z,-1.10
2024-05-09T02:35:21.548Z,-1.11
2024-05-09T02:37:55.388Z,-1.10
2024-05-09T02:40:36.137Z,-1.07
2024-05-09T02:43:03.894Z,-1.05
2024-05-09T02:45:37.302Z,-1.05
2024-05-09T02:48:14.103Z,-1.04
2024-05-09T02:50:48.445Z,-0.98
2024-05-09T02:53:22.240Z,-0.94
2024-05-09T02:55:55.761Z,-0.98
2024-05-09T02:58:29.342Z,-0.97
2024-05-09T03:01:02.567Z,-0.88
2024-05-09T03:03:36.366Z,-0.84
2024-05-09T03:06:09.945Z,-0.86
2024-05-09T03:08:46.543Z,-0.87
2024-05-09T03:11:26.627Z,-0.87
2024-05-09T03:14:00.081Z,-0.82
2024-05-09T03:16:34.797Z,-0.84
2024-05-09T03:19:08.300Z,-0.95
2024-05-09T03:21:41.737Z,-1.02
2024-05-09T03:24:15.194Z,-1.01
2024-05-09T03:26:48.477Z,-0.98
2024-05-09T03:32:02.538Z,-0.70
2024-05-09T03:34:36.094Z,-0.84
2024-05-09T03:37:09.519Z,-0.90
2024-05-09T03:39:42.847Z,-0.94
2024-05-09T03:42:16.134Z,-0.95
2024-05-09T03:44:49.537Z,-0.92
2024-05-09T03:47:23.775Z,-0.91
2024-05-09T03:49:57.228Z,-0.96
2024-05-09T03:52:30.594Z,-0.99
2024-05-09T03:55:03.891Z,-0.96
2024-05-09T03:57:37.204Z,-0.96
2024-05-09T04:00:18.200Z,-0.90
2024-05-09T04:02:49.427Z,-0.78
2024-05-09T04:05:23.568Z,-0.70
2024-05-09T04:07:57.781Z,-0.67
2024-05-09T04:10:33.858Z,-0.69
2024-05-09T04:13:06.780Z,-0.67
2024-05-09T04:15:41.023Z,-0.64
2024-05-09T04:18:14.613Z,-0.59
2024-05-09T04:20:47.960Z,-0.53
2024-05-09T04:23:21.380Z,-0.44
2024-05-09T04:25:55.142Z,-0.30
2024-05-09T04:28:31.560Z,-0.26
2024-05-09T04:31:04.863Z,-0.32
2024-05-09T04:33:38.351Z,-0.36
2024-05-09T04:36:11.915Z,-0.34
2024-05-09T04:38:45.190Z,-0.41
2024-05-09T04:41:18.522Z,-0.43
2024-05-09T04:43:52.138Z,-0.56
2024-05-09T04:46:25.440Z,-0.67
2024-05-09T04:48:58.852Z,-0.74
2024-05-09T04:51:32.368Z,-0.81
2024-05-09T04:54:08.431Z,-0.78
2024-05-09T04:56:40.614Z,-0.76
2024-05-09T04:59:14.089Z,-0.67
2024-05-09T05:01:47.351Z,-0.59
2024-05-09T05:04:21.100Z,-0.52
2024-05-09T05:06:54.560Z,-0.34
2024-05-09T05:09:27.914Z,-0.09
2024-05-09T05:12:02.985Z,0.01
2024-05-09T05:14:36.496Z,-0.09
2024-05-09T05:17:09.807Z,-0.07
2024-05-09T05:19:43.617Z,0.17
2024-05-09T05:22:17.022Z,0.33
2024-05-09T05:24:50.322Z,0.53
2024-05-09T05:27:23.467Z,0.86
2024-05-09T05:29:56.840Z,0.91
2024-05-09T05:32:30.992Z,0.94
2024-05-09T05:35:04.967Z,1.23
2024-05-09T05:37:38.378Z,1.38
2024-05-09T05:40:20.678Z,1.44
2024-05-09T05:42:49.881Z,1.32
2024-05-09T05:45:22.976Z,1.06
2024-05-09T05:47:57.018Z,0.89
2024-05-09T05:50:35.850Z,0.78
2024-05-09T05:53:07.394Z,0.72
2024-05-09T05:55:42.875Z,0.74
2024-05-09T05:58:16.384Z,0.87
2024-05-09T06:00:49.789Z,0.81
2024-05-09T06:03:23.057Z,0.60
2024-05-09T06:05:57.208Z,0.34
2024-05-09T06:08:30.820Z,0.22
2024-05-09T06:11:04.131Z,0.22
2024-05-09T06:13:37.445Z,0.39
2024-05-09T06:16:11.179Z,0.67
2024-05-09T06:18:44.433Z,0.72
2024-05-09T06:21:20.000Z,0.76
2024-05-09T06:23:54.727Z,0.93
2024-05-09T06:26:28.208Z,1.39
2024-05-09T06:29:03.065Z,1.60
2024-05-09T06:31:41.139Z,1.62
2024-05-09T06:34:15.006Z,1.76
2024-05-09T06:36:48.704Z,1.75
2024-05-09T06:39:22.184Z,1.77
2024-05-09T06:41:55.571Z,1.63
2024-05-09T06:44:29.332Z,1.55
2024-05-09T06:47:03.065Z,1.71
2024-05-09T06:49:38.035Z,2.08
2024-05-09T06:52:11.914Z,2.93
2024-05-09T06:54:45.404Z,3.59
2024-05-09T06:57:18.920Z,5.21
2024-05-09T06:59:52.587Z,5.13
2024-05-09T07:02:26.215Z,5.54
2024-05-09T07:04:59.525Z,5.22
2024-05-09T07:07:34.626Z,4.22
2024-05-09T07:10:14.959Z,3.56
2024-05-09T07:12:44.297Z,3.70
2024-05-09T07:15:18.318Z,4.17
2024-05-09T07:17:51.750Z,4.77
2024-05-09T07:20:33.732Z,4.91
2024-05-09T07:23:00.285Z,4.61
2024-05-09T07:25:33.653Z,4.41
2024-05-09T07:28:09.643Z,4.07
2024-05-09T07:30:43.374Z,4.68
2024-05-09T07:33:20.555Z,5.56
2024-05-09T07:35:54.461Z,6.97
2024-05-09T07:38:27.922Z,8.60
2024-05-09T07:41:01.389Z,9.00
2024-05-09T07:43:34.698Z,8.22
2024-05-09T07:47:13.914Z,6.72
2024-05-09T07:53:58.279Z,4.89
2024-05-09T07:56:30.737Z,4.83
2024-05-09T07:59:04.662Z,4.74
2024-05-09T08:01:38.113Z,6.33
2024-05-09T08:04:11.732Z,7.03
2024-05-09T08:06:45.141Z,6.01
2024-05-09T08:09:21.151Z,4.79
2024-05-09T08:11:54.120Z,3.91
2024-05-09T08:14:27.523Z,4.65
2024-05-09T08:17:01.329Z,7.22
2024-05-09T08:19:36.455Z,9.47
2024-05-09T08:22:09.726Z,11.26
2024-05-09T08:24:43.715Z,12.18
2024-05-09T08:27:17.141Z,9.35
2024-05-09T08:29:50.327Z,7.86
2024-05-09T08:32:23.929Z,8.18
2024-05-09T08:34:57.447Z,9.85
2024-05-09T08:40:23.621Z,11.15
2024-05-09T08:42:52.627Z,10.84
2024-05-09T08:45:27.015Z,8.93
2024-05-09T08:48:03.659Z,7.51
2024-05-09T08:50:40.266Z,6.59
2024-05-09T08:53:15.388Z,5.65
2024-05-09T08:55:50.592Z,5.24
2024-05-09T08:58:24.978Z,5.82
2024-05-09T09:01:00.705Z,8.25
2024-05-09T09:03:37.418Z,9.04
2024-05-09T09:06:14.616Z,9.67
2024-05-09T09:08:48.923Z,11.16
2024-05-09T09:11:22.437Z,9.23
2024-05-09T09:13:57.500Z,7.48
2024-05-09T09:16:37.395Z,6.49
2024-05-09T09:19:10.909Z,6.25
2024-05-09T09:21:44.700Z,6.24
2024-05-09T09:24:17.896Z,5.93
2024-05-09T09:26:52.147Z,5.83
2024-05-09T09:29:25.767Z,5.96
2024-05-09T09:32:03.958Z,6.28
2024-05-09T09:34:37.479Z,5.94
2024-05-09T09:37:12.147Z,5.49
2024-05-09T09:39:48.906Z,4.96
2024-05-09T09:42:22.764Z,4.73
2024-05-09T09:45:04.571Z,5.01
2024-05-09T09:47:38.113Z,5.61
2024-05-09T09:50:16.917Z,5.87
2024-05-09T09:52:48.841Z,7.47
2024-05-09T09:55:24.859Z,7.34
2024-05-09T09:57:58.816Z,7.43
2024-05-09T10:00:34.221Z,7.24
2024-05-09T10:05:49.976Z,10.02
2024-05-09T10:08:25.248Z,11.38
2024-05-09T10:10:59.056Z,11.17
2024-05-09T10:13:36.391Z,11.51
2024-05-09T10:16:13.584Z,12.08
2024-05-09T10:18:46.221Z,10.96
2024-05-09T10:21:20.082Z,9.49
2024-05-09T10:24:03.877Z,8.52
2024-05-09T10:26:38.191Z,8.17
2024-05-09T10:29:15.720Z,7.17
2024-05-09T10:31:49.656Z,6.74
2024-05-09T10:34:24.375Z,8.93
2024-05-09T10:37:00.386Z,9.82
2024-05-09T10:39:38.748Z,11.37
2024-05-09T10:42:13.256Z,10.44
2024-05-09T10:44:46.312Z,8.51
2024-05-09T10:47:19.646Z,7.68
2024-05-09T10:49:53.650Z,7.32
2024-05-09T10:52:26.989Z,8.65
2024-05-09T10:55:01.645Z,10.45
2024-05-09T10:57:41.848Z,12.03
2024-05-09T11:00:23.362Z,11.09
2024-05-09T11:02:51.402Z,9.47
2024-05-09T11:05:25.275Z,8.65
2024-05-09T11:07:58.885Z,8.30
2024-05-09T11:10:34.391Z,9.59
2024-05-09T11:13:10.774Z,11.00
2024-05-09T11:15:44.319Z,11.70
2024-05-09T11:18:25.881Z,11.18
2024-05-09T11:20:59.830Z,11.72
2024-05-09T11:23:33.111Z,11.00
2024-05-09T11:26:06.945Z,11.47
2024-05-09T11:28:43.673Z,11.23
2024-05-09T11:31:17.190Z,11.79
2024-05-09T11:33:50.940Z,10.21
2024-05-09T11:36:24.184Z,9.70
2024-05-09T11:38:57.343Z,9.54
2024-05-09T11:41:31.331Z,10.93
2024-05-09T11:44:05.031Z,11.66
2024-05-09T11:46:38.407Z,11.88
2024-05-09T11:49:12.199Z,11.27
2024-05-09T11:51:45.563Z,10.27
2024-05-09T11:54:19.292Z,8.82
2024-05-09T11:56:52.386Z,7.97
2024-05-09T11:59:25.543Z,8.12
2024-05-09T12:01:58.750Z,8.78
2024-05-09T12:04:32.200Z,10.86
2024-05-09T12:07:06.249Z,11.00
2024-05-09T12:09:40.149Z,11.41
2024-05-09T12:12:13.274Z,11.64
2024-05-09T12:14:46.573Z,11.04
2024-05-09T12:17:20.250Z,9.88
2024-05-09T12:19:53.626Z,9.49
2024-05-09T12:22:26.919Z,9.29
2024-05-09T12:25:00.062Z,8.75
2024-05-09T12:27:36.421Z,9.91
2024-05-09T12:30:17.236Z,10.67
2024-05-09T12:32:46.838Z,10.88
2024-05-09T12:35:19.973Z,9.98
2024-05-09T12:37:53.702Z,9.14
2024-05-09T12:40:35.487Z,9.07
2024-05-09T12:43:02.486Z,8.81
2024-05-09T12:45:35.837Z,8.65
2024-05-09T12:48:12.379Z,9.70
2024-05-09T12:50:45.934Z,9.17
2024-05-09T12:53:19.149Z,8.97
2024-05-09T12:55:56.965Z,9.89
2024-05-09T12:58:27.833Z,9.86
2024-05-09T13:01:00.981Z,10.14
2024-05-09T13:03:34.773Z,9.55
2024-05-09T13:06:08.206Z,10.50
2024-05-09T13:08:41.508Z,11.60
2024-05-09T13:11:14.681Z,10.50
2024-05-09T13:13:48.003Z,9.44
2024-05-09T13:19:02.314Z,8.66
2024-05-09T13:21:35.692Z,8.16
2024-05-09T13:26:49.568Z,8.71
2024-05-09T13:29:22.838Z,9.31
2024-05-09T13:31:55.966Z,8.89
2024-05-09T13:34:29.288Z,8.43
2024-05-09T13:37:02.395Z,8.04
2024-05-09T13:39:35.655Z,8.25
2024-05-09T13:42:09.281Z,8.18
2024-05-09T13:44:42.620Z,8.20
2024-05-09T13:47:15.782Z,8.22
2024-05-09T13:49:49.507Z,8.01
2024-05-09T13:52:22.732Z,7.83
2024-05-09T13:54:55.925Z,7.61
2024-05-09T13:57:29.661Z,7.44
2024-05-09T14:00:03.744Z,7.16
2024-05-09T14:02:39.645Z,7.26
2024-05-09T14:05:13.209Z,7.65
2024-05-09T14:07:46.737Z,8.76
2024-05-09T14:10:25.936Z,8.84
2024-05-09T14:12:54.909Z,8.38
2024-05-09T14:15:28.176Z,8.04
2024-05-09T14:18:01.656Z,7.74
2024-05-09T14:20:35.047Z,7.79
2024-05-09T14:23:08.354Z,8.57
2024-05-09T14:25:43.395Z,8.77
2024-05-09T14:28:16.559Z,8.37
2024-05-09T14:30:49.704Z,8.44
2024-05-09T14:33:24.606Z,9.20
2024-05-09T14:35:58.100Z,8.92
2024-05-09T14:38:31.900Z,8.30
2024-05-09T14:41:05.229Z,8.34
2024-05-09T14:43:38.639Z,9.92
2024-05-09T14:46:12.092Z,11.62
2024-05-09T14:48:45.437Z,12.26
2024-05-09T14:51:20.273Z,12.36
2024-05-09T14:53:53.491Z,11.31
2024-05-09T14:56:26.744Z,10.78
2024-05-09T14:58:59.937Z,10.29
2024-05-09T15:01:33.187Z,9.25
2024-05-09T15:04:06.823Z,8.76
2024-05-09T15:06:41.244Z,8.34
2024-05-09T15:09:14.402Z,8.25
2024-05-09T15:11:47.584Z,8.16
2024-05-09T15:14:21.206Z,7.85
2024-05-09T15:16:54.462Z,7.69
2024-05-09T15:19:27.992Z,7.75
2024-05-09T15:22:01.246Z,7.64
2024-05-09T15:24:34.376Z,7.47
2024-05-09T15:27:08.075Z,7.33
2024-05-09T15:29:41.283Z,7.22
2024-05-09T15:32:14.769Z,7.14
2024-05-09T15:34:47.972Z,7.09
2024-05-09T15:37:21.235Z,6.97
2024-05-09T15:39:57.362Z,6.89
2024-05-09T15:42:30.585Z,6.89
2024-05-09T15:45:03.946Z,7.00
2024-05-09T15:47:38.015Z,7.41
2024-05-09T15:50:20.270Z,7.71
2024-05-09T15:52:46.353Z,7.73
2024-05-09T15:55:19.532Z,7.94
2024-05-09T15:57:52.644Z,7.99
2024-05-09T16:00:36.066Z,8.23
2024-05-09T16:03:02.699Z,7.89
2024-05-09T16:05:36.093Z,7.58
2024-05-09T16:08:10.430Z,7.57
2024-05-09T16:10:46.186Z,7.58
2024-05-09T16:13:20.244Z,7.59
2024-05-09T16:15:53.805Z,7.53
2024-05-09T16:18:27.282Z,7.27
2024-05-09T16:21:01.620Z,7.02
2024-05-09T16:23:36.762Z,6.81
2024-05-09T16:26:10.391Z,6.63
2024-05-09T16:28:43.597Z,6.50
2024-05-09T16:31:16.823Z,6.39
2024-05-09T16:33:50.217Z,6.27
2024-05-09T16:36:23.520Z,6.21
2024-05-09T16:38:56.640Z,6.21
2024-05-09T16:41:29.831Z,6.23
2024-05-09T16:44:04.167Z,6.22
2024-05-09T16:46:37.470Z,6.18
2024-05-09T16:49:11.266Z,6.07
2024-05-09T16:51:44.526Z,5.98
2024-05-09T16:54:17.816Z,5.88
2024-05-09T16:56:51.751Z,5.82
2024-05-09T17:02:05.450Z,5.79
2024-05-09T17:04:38.855Z,5.62
2024-05-09T17:07:12.604Z,5.54
2024-05-09T17:09:46.034Z,5.51
2024-05-09T17:12:19.347Z,5.47
2024-05-09T17:14:52.519Z,5.45
2024-05-09T17:17:25.926Z,5.50
2024-05-09T17:19:58.971Z,5.60
2024-05-09T17:22:35.258Z,5.66
2024-05-09T17:25:09.151Z,5.63
2024-05-09T17:27:42.560Z,5.66
2024-05-09T17:30:24.781Z,5.67
2024-05-09T17:32:51.359Z,5.68
2024-05-09T17:35:24.610Z,5.62
2024-05-09T17:37:58.523Z,5.53
2024-05-09T17:40:35.733Z,5.44
2024-05-09T17:43:08.861Z,5.38
2024-05-09T17:45:42.709Z,5.32
2024-05-09T17:48:16.147Z,5.24
2024-05-09T17:50:50.957Z,5.19
2024-05-09T17:53:24.537Z,5.11
2024-05-09T17:55:59.426Z,5.07
2024-05-09T17:58:33.698Z,5.02
2024-05-09T18:01:07.276Z,4.99
2024-05-09T18:03:40.710Z,4.95
2024-05-09T18:06:16.424Z,4.91
2024-05-09T18:08:49.557Z,4.85
2024-05-09T18:11:22.815Z,4.80
2024-05-09T18:13:56.382Z,4.77
2024-05-09T18:16:29.821Z,4.74
2024-05-09T18:19:03.197Z,4.69
2024-05-09T18:21:36.537Z,4.65
2024-05-09T18:24:10.214Z,4.59
2024-05-09T18:26:44.073Z,4.55
2024-05-09T18:29:21.666Z,4.50
2024-05-09T18:31:53.849Z,4.46
2024-05-09T18:34:27.122Z,4.42
2024-05-09T18:37:03.758Z,4.39
2024-05-09T18:39:35.656Z,4.32
2024-05-09T18:42:09.054Z,4.27
2024-05-09T18:44:42.259Z,4.24
2024-05-09T18:47:19.399Z,4.22
2024-05-09T18:49:51.307Z,4.18
2024-05-09T18:52:24.624Z,4.16
2024-05-09T18:54:58.000Z,4.12
2024-05-09T18:57:31.339Z,4.10
2024-05-09T19:00:05.746Z,4.06
2024-05-09T19:02:40.131Z,4.00
2024-05-09T19:05:14.222Z,3.96
2024-05-09T19:07:48.178Z,3.92
2024-05-09T19:10:23.098Z,3.90
2024-05-09T19:12:56.189Z,3.88
2024-05-09T19:15:29.501Z,3.85
2024-05-09T19:18:03.615Z,3.84
2024-05-09T19:20:37.646Z,3.81
2024-05-09T19:23:12.122Z,3.79
2024-05-09T19:25:45.645Z,3.75
2024-05-09T19:28:19.007Z,3.71
2024-05-09T19:30:52.921Z,3.70
2024-05-09T19:33:27.092Z,3.67
2024-05-09T19:36:00.929Z,3.66
2024-05-09T19:38:34.206Z,3.63
2024-05-09T19:41:07.869Z,3.62
2024-05-09T19:43:41.229Z,3.60
2024-05-09T19:46:14.501Z,3.58
2024-05-09T19:48:47.841Z,3.56
2024-05-09T19:51:21.212Z,3.58
2024-05-09T19:53:55.268Z,3.59
2024-05-09T19:56:28.546Z,3.57
2024-05-09T19:59:01.574Z,3.57
2024-05-09T20:01:34.840Z,3.58
2024-05-09T20:04:08.449Z,3.58
2024-05-09T20:06:43.526Z,3.59
2024-05-09T20:09:16.637Z,3.60
2024-05-09T20:11:49.742Z,3.60
2024-05-09T20:14:23.138Z,3.61
2024-05-09T20:16:57.211Z,3.61
2024-05-09T20:19:30.848Z,3.61
2024-05-09T20:22:04.418Z,3.58
2024-05-09T20:24:37.702Z,3.55
2024-05-09T20:27:12.344Z,3.53
2024-05-09T20:29:46.040Z,3.50
2024-05-09T20:32:19.292Z,3.47
2024-05-09T20:34:52.474Z,3.45
2024-05-09T20:37:26.007Z,3.43
2024-05-09T20:39:59.156Z,3.39
2024-05-09T20:42:34.191Z,3.37
2024-05-09T20:45:08.446Z,3.34
2024-05-09T20:47:41.707Z,3.34
2024-05-09T20:50:23.749Z,3.33
2024-05-09T20:52:49.725Z,3.34
2024-05-09T20:55:22.898Z,3.37
2024-05-09T20:57:56.181Z,3.36
2024-05-09T21:00:35.576Z,3.39
2024-05-09T21:03:04.272Z,3.40
2024-05-09T21:05:37.570Z,3.40
2024-05-09T21:08:10.967Z,3.41
2024-05-09T21:10:44.318Z,3.40
2024-05-09T21:13:17.700Z,3.42
2024-05-09T21:15:51.002Z,3.43
2024-05-09T21:18:24.456Z,3.40
2024-05-09T21:20:57.613Z,3.39
2024-05-09T21:23:30.705Z,3.40
2024-05-09T21:26:03.864Z,3.39
2024-05-09T21:28:36.901Z,3.38
2024-05-09T21:31:10.795Z,3.33
2024-05-09T21:33:44.202Z,3.33
2024-05-09T21:36:17.437Z,3.32
2024-05-09T21:38:50.621Z,3.30
2024-05-09T21:41:24.692Z,3.30
2024-05-09T21:43:57.800Z,3.28
2024-05-09T21:46:31.091Z,3.24
2024-05-09T21:49:04.488Z,3.21
2024-05-09T21:51:37.793Z,3.18
2024-05-09T21:54:11.162Z,3.19
2024-05-09T21:56:44.292Z,3.19
2024-05-09T21:59:17.377Z,3.20
2024-05-09T22:01:50.692Z,3.18
2024-05-09T22:04:24.079Z,3.19
2024-05-09T22:06:57.352Z,3.14
2024-05-09T22:09:30.514Z,3.11
2024-05-09T22:12:04.778Z,3.14
2024-05-09T22:14:38.063Z,3.20
2024-05-09T22:17:11.999Z,3.25
2024-05-09T22:19:48.278Z,3.33
2024-05-09T22:22:21.522Z,3.37
2024-05-09T22:24:55.621Z,3.28
2024-05-09T22:27:28.983Z,3.39
2024-05-09T22:30:02.920Z,3.34
2024-05-09T22:32:37.370Z,3.33
2024-05-09T22:35:10.779Z,3.31
2024-05-09T22:37:43.853Z,3.31
2024-05-09T22:40:24.459Z,3.30
2024-05-09T22:42:52.059Z,3.29
2024-05-09T22:45:25.366Z,3.30
2024-05-09T22:50:39.741Z,3.44
2024-05-09T22:53:12.878Z,3.36
2024-05-09T22:55:46.115Z,3.37
2024-05-09T22:58:19.469Z,3.41
2024-05-09T23:00:53.061Z,3.38
2024-05-09T23:03:26.517Z,3.37
2024-05-09T23:05:59.828Z,3.37
2024-05-09T23:08:33.110Z,3.41
2024-05-09T23:11:07.247Z,3.44
2024-05-09T23:13:40.565Z,3.46
2024-05-09T23:16:13.982Z,3.47
2024-05-09T23:18:47.167Z,3.47
2024-05-09T23:21:20.401Z,3.49
2024-05-09T23:23:53.447Z,3.47
2024-05-09T23:26:26.490Z,3.47
2024-05-09T23:28:59.640Z,3.42
2024-05-09T23:31:32.804Z,3.41
2024-05-09T23:34:05.975Z,3.42
2024-05-09T23:36:39.226Z,3.41
2024-05-09T23:39:12.458Z,3.40
2024-05-09T23:41:45.880Z,3.38
2024-05-09T23:44:19.425Z,3.36
2024-05-09T23:46:52.788Z,3.36
2024-05-09T23:49:25.910Z,3.36
2024-05-09T23:51:59.102Z,3.38
2024-05-09T23:54:32.227Z,3.40
2024-05-09T23:57:05.951Z,3.41
2024-05-09T23:59:38.953Z,3.40
